createdAt,value
2019-04-10T00:00:47.769Z,75.98
2019-04-10T00:01:37.565Z,76.22
2019-04-10T00:02:29.283Z,76.27
2019-04-10T00:03:27.822Z,76.29
2019-04-10T00:04:12.578Z,76.27
2019-04-10T00:05:03.385Z,76.29
2019-04-10T00:05:54.234Z,76.30
2019-04-10T00:06:46.422Z,76.28
2019-04-10T00:07:37.472Z,76.29
2019-04-10T00:08:26.844Z,76.32
2019-04-10T00:09:23.146Z,76.33
2019-04-10T00:10:14.415Z,76.35
2019-04-10T00:11:05.095Z,76.37
2019-04-10T00:11:56.995Z,76.38
2019-04-10T00:12:47.653Z,76.37
2019-04-10T00:13:38.535Z,76.39
2019-04-10T00:14:28.978Z,76.37
2019-04-10T00:15:20.590Z,76.38
2019-04-10T00:16:10.542Z,76.39
2019-04-10T00:17:00.748Z,76.39
2019-04-10T00:17:51.961Z,76.37
2019-04-10T00:18:42.993Z,76.38
2019-04-10T00:19:35.792Z,76.44
2019-04-10T00:20:25.411Z,76.57
2019-04-10T00:21:15.909Z,76.55
2019-04-10T00:22:06.760Z,76.56
2019-04-10T00:22:57.311Z,76.59
2019-04-10T00:23:49.309Z,76.64
2019-04-10T00:24:40.065Z,76.75
2019-04-10T00:25:30.165Z,76.74
2019-04-10T00:26:21.561Z,76.72
2019-04-10T00:27:10.712Z,76.76
2019-04-10T00:28:01.313Z,76.78
2019-04-10T00:28:52.569Z,76.81
2019-04-10T00:29:44.671Z,76.81
2019-04-10T00:30:35.413Z,76.85
2019-04-10T00:31:26.396Z,77.51
2019-04-10T00:32:16.966Z,77.44
2019-04-10T00:33:08.230Z,77.35
2019-04-10T00:33:59.003Z,77.31
2019-04-10T00:34:50.034Z,77.28
2019-04-10T00:35:40.399Z,77.29
2019-04-10T00:36:33.171Z,77.30
2019-04-10T00:37:27.214Z,77.30
2019-04-10T00:38:13.864Z,77.36
2019-04-10T00:39:06.453Z,77.38
2019-04-10T00:39:57.114Z,77.38
2019-04-10T00:40:47.911Z,77.38
2019-04-10T00:41:40.657Z,77.40
2019-04-10T00:42:31.206Z,77.53
2019-04-10T00:43:22.597Z,77.51
2019-04-10T00:44:13.371Z,77.51
2019-04-10T00:45:03.965Z,77.52
2019-04-10T00:45:53.655Z,77.82
2019-04-10T00:46:44.783Z,77.82
2019-04-10T00:47:35.703Z,77.75
2019-04-10T00:48:26.014Z,77.71
2019-04-10T00:49:16.188Z,77.68
2019-04-10T00:50:06.504Z,77.67
2019-04-10T00:50:57.084Z,77.64
2019-04-10T00:51:48.228Z,77.63
2019-04-10T00:52:38.948Z,77.64
2019-04-10T00:53:29.761Z,77.64
2019-04-10T00:54:20.156Z,77.67
2019-04-10T00:55:11.274Z,77.69
2019-04-10T00:56:01.956Z,77.73
2019-04-10T00:56:52.794Z,77.76
2019-04-10T00:57:42.801Z,77.80
2019-04-10T00:58:33.265Z,77.82
2019-04-10T00:59:24.598Z,77.84
2019-04-10T01:00:15.167Z,77.90
2019-04-10T01:01:05.713Z,77.96
2019-04-10T01:02:03.255Z,77.98
2019-04-10T01:02:53.653Z,77.99
2019-04-10T01:03:44.163Z,78.18
2019-04-10T01:04:34.300Z,78.32
2019-04-10T01:05:28.643Z,78.28
2019-04-10T01:06:19.888Z,78.24
2019-04-10T01:07:10.681Z,78.24
2019-04-10T01:08:00.806Z,78.23
2019-04-10T01:08:51.670Z,78.36
2019-04-10T01:09:41.720Z,78.54
2019-04-10T01:10:34.526Z,78.45
2019-04-10T01:11:23.956Z,78.45
2019-04-10T01:12:14.743Z,78.38
2019-04-10T01:13:05.245Z,78.33
2019-04-10T01:13:55.531Z,78.42
2019-04-10T01:14:47.659Z,78.37
2019-04-10T01:15:38.602Z,78.31
2019-04-10T01:16:28.466Z,78.29
2019-04-10T01:17:19.510Z,78.35
2019-04-10T01:18:10.934Z,78.33
2019-04-10T01:19:01.632Z,78.75
2019-04-10T01:19:50.735Z,78.68
2019-04-10T01:20:41.840Z,78.62
2019-04-10T01:21:34.646Z,78.52
2019-04-10T01:22:25.349Z,78.46
2019-04-10T01:23:16.120Z,78.37
2019-04-10T01:24:07.312Z,78.34
2019-04-10T01:24:58.536Z,78.30
2019-04-10T01:25:49.086Z,78.26
2019-04-10T01:26:41.698Z,78.76
2019-04-10T01:27:32.804Z,78.70
2019-04-10T01:28:22.896Z,78.60
2019-04-10T01:29:13.442Z,78.53
2019-04-10T01:30:04.331Z,78.53
2019-04-10T01:30:54.935Z,78.55
2019-04-10T01:31:46.403Z,78.50
2019-04-10T01:32:39.779Z,78.45
2019-04-10T01:33:30.366Z,78.43
2019-04-10T01:34:21.085Z,78.39
2019-04-10T01:35:13.978Z,78.36
2019-04-10T01:36:06.940Z,78.34
2019-04-10T01:36:57.284Z,78.33
2019-04-10T01:37:53.476Z,78.31
2019-04-10T01:38:41.874Z,78.31
2019-04-10T01:39:32.602Z,78.33
2019-04-10T01:40:23.407Z,78.31
2019-04-10T01:41:13.896Z,78.28
2019-04-10T01:42:04.356Z,78.29
2019-04-10T01:43:09.955Z,78.24
2019-04-10T01:43:46.869Z,78.22
2019-04-10T01:44:41.210Z,78.18
2019-04-10T01:45:32.098Z,78.15
2019-04-10T01:46:24.415Z,78.14
2019-04-10T01:47:15.125Z,78.17
2019-04-10T01:48:05.871Z,78.17
2019-04-10T01:48:56.006Z,78.15
2019-04-10T01:49:47.388Z,78.14
2019-04-10T01:50:39.224Z,78.16
2019-04-10T01:51:31.551Z,78.20
2019-04-10T01:52:22.733Z,78.24
2019-04-10T01:53:15.057Z,78.63
2019-04-10T01:54:06.886Z,78.54
2019-04-10T01:54:57.738Z,78.47
2019-04-10T01:55:49.222Z,78.46
2019-04-10T01:56:43.873Z,78.45
2019-04-10T01:57:34.619Z,78.55
2019-04-10T01:58:25.300Z,78.98
2019-04-10T01:59:15.922Z,78.87
2019-04-10T02:00:06.776Z,78.85
2019-04-10T02:01:26.210Z,78.80
2019-04-10T02:02:25.382Z,78.82
2019-04-10T02:03:15.978Z,78.63
2019-04-10T02:04:08.876Z,78.55
2019-04-10T02:05:00.639Z,78.45
2019-04-10T02:05:49.963Z,78.40
2019-04-10T02:06:43.401Z,78.33
2019-04-10T02:07:34.088Z,78.24
2019-04-10T02:08:25.833Z,78.18
2019-04-10T02:09:16.722Z,78.12
2019-04-10T02:10:08.227Z,78.11
2019-04-10T02:10:58.880Z,78.12
2019-04-10T02:11:50.227Z,78.08
2019-04-10T02:12:43.788Z,78.04
2019-04-10T02:13:33.894Z,78.01
2019-04-10T02:14:24.552Z,77.98
2019-04-10T02:15:15.936Z,77.96
2019-04-10T02:16:06.224Z,77.94
2019-04-10T02:16:59.044Z,78.12
2019-04-10T02:17:49.762Z,78.08
2019-04-10T02:18:41.584Z,78.02
2019-04-10T02:19:32.262Z,78.00
2019-04-10T02:20:22.965Z,77.97
2019-04-10T02:21:14.137Z,77.98
2019-04-10T02:22:05.104Z,78.15
2019-04-10T02:22:56.188Z,78.23
2019-04-10T02:23:46.960Z,78.14
2019-04-10T02:24:38.923Z,78.08
2019-04-10T02:25:30.621Z,78.04
2019-04-10T02:26:21.315Z,78.05
2019-04-10T02:27:12.725Z,78.02
2019-04-10T02:28:04.869Z,77.99
2019-04-10T02:28:55.494Z,77.93
2019-04-10T02:29:44.534Z,77.92
2019-04-10T02:30:37.301Z,77.89
2019-04-10T02:31:28.572Z,77.88
2019-04-10T02:32:18.772Z,77.84
2019-04-10T02:33:08.474Z,77.84
2019-04-10T02:33:59.921Z,77.82
2019-04-10T02:34:50.608Z,77.79
2019-04-10T02:35:40.348Z,77.80
2019-04-10T02:36:31.551Z,77.80
2019-04-10T02:37:22.808Z,77.81
2019-04-10T02:38:33.891Z,77.80
2019-04-10T02:39:15.168Z,77.76
2019-04-10T02:40:00.064Z,77.77
2019-04-10T02:40:47.474Z,77.74
2019-04-10T02:41:38.657Z,77.75
2019-04-10T02:42:30.093Z,77.80
2019-04-10T02:43:20.917Z,77.77
2019-04-10T02:44:10.285Z,77.78
2019-04-10T02:45:02.232Z,77.77
2019-04-10T02:45:51.530Z,77.75
2019-04-10T02:46:42.827Z,77.80
2019-04-10T02:47:34.578Z,77.85
2019-04-10T02:48:25.206Z,77.82
2019-04-10T02:49:16.358Z,77.80
2019-04-10T02:50:07.897Z,77.77
2019-04-10T02:50:59.570Z,77.85
2019-04-10T02:51:49.949Z,77.92
2019-04-10T02:52:41.215Z,77.87
2019-04-10T02:53:31.743Z,77.87
2019-04-10T02:54:22.836Z,77.84
2019-04-10T02:55:14.424Z,77.77
2019-04-10T02:56:05.395Z,77.81
2019-04-10T02:56:54.933Z,77.89
2019-04-10T02:57:47.374Z,77.87
2019-04-10T02:58:38.536Z,77.82
2019-04-10T02:59:29.256Z,77.76
2019-04-10T03:00:20.294Z,77.72
2019-04-10T03:01:11.217Z,77.66
2019-04-10T03:02:02.442Z,77.61
2019-04-10T03:02:55.158Z,77.58
2019-04-10T03:03:44.690Z,77.52
2019-04-10T03:04:35.217Z,77.47
2019-04-10T03:05:27.100Z,77.46
2019-04-10T03:06:15.686Z,77.50
2019-04-10T03:07:07.697Z,77.51
2019-04-10T03:07:58.247Z,77.46
2019-04-10T03:09:02.137Z,77.41
2019-04-10T03:09:52.919Z,77.37
2019-04-10T03:10:37.180Z,77.34
2019-04-10T03:11:22.218Z,77.30
2019-04-10T03:12:13.032Z,77.51
2019-04-10T03:13:02.725Z,77.43
2019-04-10T03:13:53.514Z,77.39
2019-04-10T03:14:45.968Z,77.37
2019-04-10T03:15:34.298Z,77.36
2019-04-10T03:16:24.843Z,77.33
2019-04-10T03:17:15.586Z,77.32
2019-04-10T03:18:06.483Z,77.32
2019-04-10T03:18:56.996Z,77.29
2019-04-10T03:19:47.111Z,77.32
2019-04-10T03:20:38.404Z,77.28
2019-04-10T03:21:29.148Z,77.25
2019-04-10T03:22:18.853Z,77.23
2019-04-10T03:23:09.884Z,77.24
2019-04-10T03:24:00.785Z,77.24
2019-04-10T03:24:51.442Z,77.22
2019-04-10T03:25:42.045Z,77.21
2019-04-10T03:26:34.082Z,77.18
2019-04-10T03:27:25.978Z,77.28
2019-04-10T03:28:16.660Z,77.30
2019-04-10T03:29:07.352Z,77.26
2019-04-10T03:29:56.718Z,77.31
2019-04-10T03:30:49.415Z,77.30
2019-04-10T03:31:39.201Z,77.29
2019-04-10T03:32:59.668Z,77.28
2019-04-10T03:33:54.441Z,77.56
2019-04-10T03:34:46.115Z,77.63
2019-04-10T03:35:38.809Z,77.60
2019-04-10T03:36:36.274Z,77.81
2019-04-10T03:37:27.038Z,77.74
2019-04-10T03:38:18.410Z,77.71
2019-04-10T03:39:10.682Z,77.70
2019-04-10T03:40:00.828Z,77.70
2019-04-10T03:40:51.913Z,77.69
2019-04-10T03:41:42.385Z,77.69
2019-04-10T03:42:32.980Z,77.70
2019-04-10T03:43:23.885Z,77.72
2019-04-10T03:44:14.591Z,77.75
2019-04-10T03:45:07.410Z,77.77
2019-04-10T03:45:57.755Z,77.76
2019-04-10T03:46:48.939Z,77.74
2019-04-10T03:47:39.651Z,77.76
2019-04-10T03:48:29.346Z,77.75
2019-04-10T03:49:20.005Z,77.77
2019-04-10T03:50:12.027Z,77.77
2019-04-10T03:51:03.877Z,77.95
2019-04-10T03:51:54.591Z,77.88
2019-04-10T03:52:46.424Z,77.86
2019-04-10T03:53:38.186Z,77.83
2019-04-10T03:54:28.843Z,77.81
2019-04-10T03:55:20.901Z,77.83
2019-04-10T03:56:13.735Z,77.86
2019-04-10T03:57:04.574Z,78.09
2019-04-10T03:57:55.280Z,78.07
2019-04-10T03:58:47.987Z,78.03
2019-04-10T03:59:40.035Z,77.99
2019-04-10T04:00:30.011Z,78.04
2019-04-10T04:01:20.480Z,78.05
2019-04-10T04:02:11.632Z,78.09
2019-04-10T04:03:02.581Z,78.09
2019-04-10T04:03:53.282Z,78.11
2019-04-10T04:04:44.366Z,78.10
2019-04-10T04:05:37.093Z,78.13
2019-04-10T04:06:27.881Z,78.15
2019-04-10T04:07:18.166Z,78.17
2019-04-10T04:08:08.640Z,78.23
2019-04-10T04:09:06.705Z,78.47
2019-04-10T04:09:51.512Z,78.49
2019-04-10T04:10:42.664Z,78.85
2019-04-10T04:11:33.548Z,78.85
2019-04-10T04:12:24.619Z,78.79
2019-04-10T04:13:15.303Z,78.95
2019-04-10T04:14:06.200Z,78.95
2019-04-10T04:14:56.927Z,78.89
2019-04-10T04:15:48.436Z,78.85
2019-04-10T04:16:39.213Z,79.03
2019-04-10T04:17:32.539Z,79.04
2019-04-10T04:18:23.269Z,79.01
2019-04-10T04:19:15.645Z,79.01
2019-04-10T04:20:06.408Z,79.07
2019-04-10T04:20:59.356Z,79.11
2019-04-10T04:21:50.042Z,79.44
2019-04-10T04:22:41.115Z,79.31
2019-04-10T04:23:32.023Z,79.28
2019-04-10T04:24:25.495Z,79.28
2019-04-10T04:25:16.913Z,79.26
2019-04-10T04:26:07.241Z,79.22
2019-04-10T04:27:01.034Z,79.17
2019-04-10T04:27:52.473Z,79.17
2019-04-10T04:28:44.016Z,79.15
2019-04-10T04:29:36.228Z,79.09
2019-04-10T04:30:30.313Z,79.08
2019-04-10T04:31:21.149Z,79.10
2019-04-10T04:32:15.556Z,79.21
2019-04-10T04:33:06.584Z,79.19
2019-04-10T04:33:59.910Z,79.24
2019-04-10T04:34:50.696Z,79.20
2019-04-10T04:35:43.152Z,79.09
2019-04-10T04:36:35.194Z,79.04
2019-04-10T04:37:26.256Z,78.96
2019-04-10T04:38:17.826Z,78.91
2019-04-10T04:39:20.629Z,78.90
2019-04-10T04:40:03.063Z,78.95
2019-04-10T04:40:54.905Z,78.90
2019-04-10T04:41:46.058Z,78.86
2019-04-10T04:42:36.688Z,78.85
2019-04-10T04:43:28.489Z,78.82
2019-04-10T04:44:18.322Z,78.89
2019-04-10T04:45:10.771Z,78.97
2019-04-10T04:46:01.229Z,78.97
2019-04-10T04:46:52.710Z,78.90
2019-04-10T04:47:43.306Z,78.84
2019-04-10T04:48:34.674Z,78.81
2019-04-10T04:49:24.756Z,78.78
2019-04-10T04:50:16.330Z,78.73
2019-04-10T04:51:06.749Z,78.77
2019-04-10T04:51:58.146Z,78.73
2019-04-10T04:52:49.308Z,78.71
2019-04-10T04:53:39.830Z,78.80
2019-04-10T04:54:30.913Z,78.69
2019-04-10T04:55:21.788Z,78.65
2019-04-10T04:56:11.560Z,78.60
2019-04-10T04:57:02.757Z,78.57
2019-04-10T04:57:53.775Z,78.57
2019-04-10T04:58:45.631Z,78.52
2019-04-10T04:59:34.693Z,78.50
2019-04-10T05:00:26.256Z,78.51
2019-04-10T05:01:17.010Z,78.51
2019-04-10T05:02:07.940Z,78.49
2019-04-10T05:02:59.790Z,78.46
2019-04-10T05:03:50.466Z,78.48
2019-04-10T05:04:41.709Z,78.45
2019-04-10T05:05:31.402Z,78.48
2019-04-10T05:06:22.333Z,78.44
2019-04-10T05:07:13.553Z,78.42
2019-04-10T05:08:05.359Z,78.38
2019-04-10T05:08:55.392Z,78.36
2019-04-10T05:09:46.282Z,78.31
2019-04-10T05:10:37.837Z,78.30
2019-04-10T05:11:28.658Z,78.29
2019-04-10T05:12:20.093Z,78.28
2019-04-10T05:13:10.706Z,78.20
2019-04-10T05:14:04.968Z,78.20
2019-04-10T05:14:55.747Z,78.15
2019-04-10T05:15:46.410Z,78.10
2019-04-10T05:16:39.468Z,78.02
2019-04-10T05:17:28.853Z,78.00
2019-04-10T05:18:19.278Z,77.96
2019-04-10T05:19:10.206Z,77.94
2019-04-10T05:20:02.886Z,77.84
2019-04-10T05:20:52.620Z,77.79
2019-04-10T05:21:45.662Z,77.73
2019-04-10T05:22:36.366Z,77.67
2019-04-10T05:23:27.426Z,77.61
2019-04-10T05:24:18.649Z,77.53
2019-04-10T05:25:11.108Z,77.46
2019-04-10T05:26:02.440Z,77.32
2019-04-10T05:26:53.555Z,77.23
2019-04-10T05:27:43.519Z,77.17
2019-04-10T05:28:34.044Z,77.09
2019-04-10T05:29:28.317Z,77.08
2019-04-10T05:30:16.455Z,76.96
2019-04-10T05:31:07.179Z,76.89
2019-04-10T05:31:57.472Z,76.81
2019-04-10T05:32:47.964Z,76.70
2019-04-10T05:33:38.728Z,76.60
2019-04-10T05:34:29.537Z,76.41
2019-04-10T05:35:19.412Z,76.33
2019-04-10T05:36:10.050Z,76.21
2019-04-10T05:37:01.018Z,76.14
2019-04-10T05:37:51.975Z,76.08
2019-04-10T05:38:43.977Z,75.98
2019-04-10T05:39:40.573Z,75.87
2019-04-10T05:40:24.324Z,75.77
2019-04-10T05:41:15.473Z,75.60
2019-04-10T05:42:06.428Z,75.51
2019-04-10T05:42:57.460Z,75.27
2019-04-10T05:43:48.933Z,74.94
2019-04-10T05:44:40.203Z,74.80
2019-04-10T05:45:30.408Z,74.11
2019-04-10T05:46:21.668Z,74.12
2019-04-10T05:47:12.139Z,74.18
2019-04-10T05:48:03.316Z,74.16
2019-04-10T05:48:54.151Z,74.02
2019-04-10T05:49:45.049Z,73.99
2019-04-10T05:50:36.458Z,73.84
2019-04-10T05:51:28.865Z,73.60
2019-04-10T05:52:20.035Z,73.58
2019-04-10T05:53:09.822Z,73.21
2019-04-10T05:54:00.284Z,73.04
2019-04-10T05:54:51.648Z,73.03
2019-04-10T05:55:42.241Z,73.00
2019-04-10T05:56:34.339Z,72.94
2019-04-10T05:57:24.603Z,72.80
2019-04-10T05:58:17.436Z,72.75
2019-04-10T05:59:09.820Z,72.17
2019-04-10T05:59:58.762Z,71.87
2019-04-10T06:00:49.930Z,71.67
2019-04-10T06:01:42.527Z,71.50
2019-04-10T06:02:32.113Z,71.21
2019-04-10T06:03:22.741Z,70.93
2019-04-10T06:04:13.364Z,70.82
2019-04-10T06:05:05.296Z,70.70
2019-04-10T06:05:54.962Z,70.44
2019-04-10T06:06:48.490Z,70.14
2019-04-10T06:07:38.156Z,70.00
2019-04-10T06:08:29.084Z,69.56
2019-04-10T06:09:20.594Z,69.57
2019-04-10T06:10:10.825Z,69.60
2019-04-10T06:11:01.466Z,69.19
2019-04-10T06:11:53.158Z,69.18
2019-04-10T06:12:43.074Z,69.20
2019-04-10T06:13:34.742Z,69.10
2019-04-10T06:14:26.214Z,69.20
2019-04-10T06:15:18.977Z,69.31
2019-04-10T06:16:09.765Z,69.16
2019-04-10T06:17:02.384Z,69.03
2019-04-10T06:17:51.042Z,69.02
2019-04-10T06:18:40.806Z,68.94
2019-04-10T06:19:32.248Z,68.72
2019-04-10T06:20:23.000Z,68.51
2019-04-10T06:21:14.707Z,68.07
2019-04-10T06:22:05.311Z,67.48
2019-04-10T06:22:55.845Z,67.46
2019-04-10T06:23:47.598Z,67.59
2019-04-10T06:24:36.556Z,67.11
2019-04-10T06:25:29.412Z,66.54
2019-04-10T06:26:19.917Z,66.69
2019-04-10T06:27:10.342Z,66.35
2019-04-10T06:28:01.485Z,66.53
2019-04-10T06:28:53.029Z,66.55
2019-04-10T06:29:45.019Z,66.20
2019-04-10T06:30:34.936Z,66.10
2019-04-10T06:31:25.955Z,66.29
2019-04-10T06:32:17.374Z,66.42
2019-04-10T06:33:09.583Z,66.45
2019-04-10T06:34:00.412Z,65.92
2019-04-10T06:34:50.520Z,65.95
2019-04-10T06:35:42.092Z,66.03
2019-04-10T06:36:33.556Z,65.70
2019-04-10T06:37:24.365Z,64.98
2019-04-10T06:38:16.890Z,65.33
2019-04-10T06:39:07.011Z,65.32
2019-04-10T06:40:07.625Z,65.14
2019-04-10T06:40:50.386Z,65.07
2019-04-10T06:41:41.141Z,65.16
2019-04-10T06:42:35.105Z,65.21
2019-04-10T06:43:22.550Z,65.29
2019-04-10T06:44:13.958Z,65.43
2019-04-10T06:45:05.710Z,65.47
2019-04-10T06:45:54.503Z,65.41
2019-04-10T06:46:44.993Z,65.21
2019-04-10T06:47:36.631Z,64.49
2019-04-10T06:48:28.389Z,64.42
2019-04-10T06:49:20.476Z,64.01
2019-04-10T06:50:10.688Z,64.06
2019-04-10T06:51:02.194Z,64.18
2019-04-10T06:51:53.461Z,64.26
2019-04-10T06:52:43.383Z,64.27
2019-04-10T06:53:35.254Z,64.31
2019-04-10T06:54:26.840Z,63.83
2019-04-10T06:55:16.872Z,63.97
2019-04-10T06:56:09.793Z,64.15
2019-04-10T06:56:59.441Z,63.90
2019-04-10T06:57:55.036Z,63.92
2019-04-10T06:58:41.482Z,63.90
2019-04-10T06:59:32.583Z,63.78
2019-04-10T07:00:23.081Z,63.66
2019-04-10T07:01:14.686Z,63.65
2019-04-10T07:02:17.714Z,63.51
2019-04-10T07:02:56.690Z,63.38
2019-04-10T07:03:56.534Z,63.34
2019-04-10T07:04:46.035Z,63.12
2019-04-10T07:05:40.132Z,63.07
2019-04-10T07:06:22.234Z,63.13
2019-04-10T07:07:13.946Z,63.01
2019-04-10T07:08:10.844Z,63.10
2019-04-10T07:08:53.376Z,63.07
2019-04-10T07:09:45.356Z,63.20
2019-04-10T07:10:48.207Z,63.11
2019-04-10T07:11:30.434Z,63.00
2019-04-10T07:12:18.608Z,63.00
2019-04-10T07:13:10.825Z,63.00
2019-04-10T07:14:00.273Z,63.09
2019-04-10T07:14:55.219Z,63.21
2019-04-10T07:15:45.137Z,63.27
2019-04-10T07:16:37.235Z,63.13
2019-04-10T07:17:27.221Z,63.03
2019-04-10T07:18:20.610Z,63.01
2019-04-10T07:19:11.662Z,63.13
2019-04-10T07:20:01.965Z,63.18
2019-04-10T07:20:57.216Z,63.19
2019-04-10T07:21:44.529Z,63.07
2019-04-10T07:22:36.646Z,62.88
2019-04-10T07:23:29.227Z,63.00
2019-04-10T07:24:18.802Z,63.08
2019-04-10T07:25:11.171Z,63.11
2019-04-10T07:26:01.722Z,63.09
2019-04-10T07:26:51.424Z,63.13
2019-04-10T07:27:41.891Z,63.12
2019-04-10T07:28:33.196Z,63.24
2019-04-10T07:29:26.663Z,63.46
2019-04-10T07:30:15.308Z,63.45
2019-04-10T07:31:08.566Z,63.36
2019-04-10T07:31:58.359Z,63.35
2019-04-10T07:32:49.175Z,63.43
2019-04-10T07:33:40.571Z,63.33
2019-04-10T07:34:30.324Z,63.12
2019-04-10T07:35:21.888Z,63.08
2019-04-10T07:36:14.058Z,62.98
2019-04-10T07:37:03.920Z,63.11
2019-04-10T07:37:56.981Z,63.16
2019-04-10T07:38:46.852Z,62.95
2019-04-10T07:39:37.658Z,62.93
2019-04-10T07:40:33.033Z,62.73
2019-04-10T07:41:22.671Z,62.66
2019-04-10T07:42:10.220Z,62.64
2019-04-10T07:43:00.546Z,62.36
2019-04-10T07:43:55.100Z,62.11
2019-04-10T07:44:43.799Z,61.90
2019-04-10T07:45:35.507Z,61.82
2019-04-10T07:46:26.253Z,61.82
2019-04-10T07:47:17.446Z,61.87
2019-04-10T07:48:08.711Z,61.94
2019-04-10T07:48:58.655Z,61.65
2019-04-10T07:49:50.352Z,61.52
2019-04-10T07:50:39.697Z,61.59
2019-04-10T07:51:29.937Z,61.58
2019-04-10T07:52:22.331Z,61.53
2019-04-10T07:53:11.190Z,61.60
2019-04-10T07:54:04.089Z,61.72
2019-04-10T07:54:55.148Z,61.70
2019-04-10T07:55:56.586Z,61.76
2019-04-10T07:56:37.292Z,61.83
2019-04-10T07:57:28.500Z,61.32
2019-04-10T07:58:19.403Z,61.49
2019-04-10T07:59:09.040Z,61.48
2019-04-10T08:00:00.931Z,61.66
2019-04-10T08:00:51.774Z,61.64
2019-04-10T08:01:42.269Z,61.38
2019-04-10T08:02:34.158Z,61.11
2019-04-10T08:03:25.136Z,60.82
2019-04-10T08:04:15.146Z,60.95
2019-04-10T08:05:06.413Z,60.97
2019-04-10T08:05:58.198Z,60.57
2019-04-10T08:06:48.428Z,60.49
2019-04-10T08:07:40.594Z,60.26
2019-04-10T08:08:30.210Z,60.17
2019-04-10T08:09:21.046Z,59.76
2019-04-10T08:10:12.830Z,59.46
2019-04-10T08:11:03.523Z,59.75
2019-04-10T08:11:56.689Z,59.84
2019-04-10T08:12:50.275Z,59.87
2019-04-10T08:13:38.507Z,59.83
2019-04-10T08:14:29.470Z,59.56
2019-04-10T08:15:19.326Z,59.26
2019-04-10T08:16:10.567Z,59.49
2019-04-10T08:17:00.769Z,58.92
2019-04-10T08:17:51.914Z,58.59
2019-04-10T08:18:42.258Z,58.75
2019-04-10T08:19:35.002Z,58.53
2019-04-10T08:20:24.552Z,58.96
2019-04-10T08:21:15.590Z,58.93
2019-04-10T08:22:06.847Z,58.19
2019-04-10T08:22:57.379Z,58.55
2019-04-10T08:23:48.557Z,58.91
2019-04-10T08:24:38.638Z,58.73
2019-04-10T08:25:29.582Z,58.02
2019-04-10T08:26:21.394Z,58.24
2019-04-10T08:27:11.871Z,58.35
2019-04-10T08:28:02.912Z,57.84
2019-04-10T08:28:53.854Z,57.11
2019-04-10T08:29:44.947Z,57.21
2019-04-10T08:30:36.222Z,57.34
2019-04-10T08:31:26.626Z,57.42
2019-04-10T08:32:18.209Z,57.17
2019-04-10T08:33:09.883Z,57.07
2019-04-10T08:34:01.100Z,57.17
2019-04-10T08:34:51.376Z,57.45
2019-04-10T08:35:43.003Z,57.39
2019-04-10T08:36:35.276Z,57.65
2019-04-10T08:37:26.531Z,57.69
2019-04-10T08:38:17.957Z,57.19
2019-04-10T08:39:09.407Z,57.34
2019-04-10T08:40:00.553Z,57.63
2019-04-10T08:40:50.844Z,57.83
2019-04-10T08:41:43.703Z,56.98
2019-04-10T08:42:33.599Z,56.86
2019-04-10T08:43:24.589Z,56.91
2019-04-10T08:44:15.631Z,56.53
2019-04-10T08:45:07.137Z,56.49
2019-04-10T08:45:58.920Z,56.30
2019-04-10T08:46:50.432Z,55.91
2019-04-10T08:47:40.528Z,55.96
2019-04-10T08:48:32.980Z,55.94
2019-04-10T08:49:22.939Z,56.19
2019-04-10T08:50:14.017Z,56.61
2019-04-10T08:51:04.893Z,56.24
2019-04-10T08:51:56.332Z,55.79
2019-04-10T08:52:49.272Z,55.82
2019-04-10T08:53:39.958Z,55.89
2019-04-10T08:54:30.907Z,56.09
2019-04-10T08:55:24.074Z,56.08
2019-04-10T08:56:14.851Z,56.24
2019-04-10T08:57:05.401Z,55.34
2019-04-10T08:57:56.572Z,55.26
2019-04-10T08:58:48.227Z,54.83
2019-04-10T08:59:38.341Z,54.82
2019-04-10T09:00:29.205Z,54.96
2019-04-10T09:01:20.870Z,54.98
2019-04-10T09:02:11.663Z,54.81
2019-04-10T09:03:02.405Z,55.18
2019-04-10T09:03:52.238Z,55.44
2019-04-10T09:04:43.299Z,55.16
2019-04-10T09:05:34.104Z,54.95
2019-04-10T09:06:25.231Z,54.96
2019-04-10T09:07:16.346Z,55.60
2019-04-10T09:08:07.037Z,55.46
2019-04-10T09:08:59.395Z,55.51
2019-04-10T09:09:50.443Z,55.12
2019-04-10T09:10:41.069Z,54.91
2019-04-10T09:11:33.956Z,54.87
2019-04-10T09:12:23.991Z,54.89
2019-04-10T09:13:14.856Z,54.53
2019-04-10T09:14:06.530Z,54.74
2019-04-10T09:14:57.553Z,55.15
2019-04-10T09:15:49.956Z,55.47
2019-04-10T09:16:40.008Z,54.41
2019-04-10T09:17:31.372Z,54.40
2019-04-10T09:18:21.540Z,53.98
2019-04-10T09:19:13.933Z,53.78
2019-04-10T09:20:05.172Z,53.73
2019-04-10T09:20:55.855Z,53.64
2019-04-10T09:21:46.026Z,53.77
2019-04-10T09:22:49.786Z,53.73
2019-04-10T09:23:37.908Z,53.74
2019-04-10T09:24:19.616Z,53.70
2019-04-10T09:25:09.542Z,54.09
2019-04-10T09:26:01.843Z,54.25
2019-04-10T09:26:52.857Z,54.30
2019-04-10T09:27:44.215Z,54.43
2019-04-10T09:28:34.802Z,54.47
2019-04-10T09:29:25.781Z,54.63
2019-04-10T09:30:16.597Z,54.26
2019-04-10T09:31:07.421Z,54.63
2019-04-10T09:31:57.843Z,54.87
2019-04-10T09:32:50.622Z,54.77
2019-04-10T09:33:40.798Z,54.91
2019-04-10T09:34:31.852Z,54.87
2019-04-10T09:35:22.547Z,54.98
2019-04-10T09:36:13.490Z,54.90
2019-04-10T09:37:03.970Z,54.52
2019-04-10T09:37:54.679Z,54.72
2019-04-10T09:38:45.631Z,54.75
2019-04-10T09:39:36.024Z,54.38
2019-04-10T09:40:27.931Z,54.05
2019-04-10T09:41:17.863Z,54.30
2019-04-10T09:42:08.771Z,54.41
2019-04-10T09:42:59.771Z,54.52
2019-04-10T09:43:49.691Z,54.64
2019-04-10T09:44:40.379Z,54.55
2019-04-10T09:45:31.014Z,54.57
2019-04-10T09:46:21.619Z,54.64
2019-04-10T09:47:11.876Z,54.52
2019-04-10T09:48:02.247Z,54.41
2019-04-10T09:48:54.102Z,54.35
2019-04-10T09:49:47.021Z,54.11
2019-04-10T09:50:35.468Z,53.81
2019-04-10T09:51:26.162Z,54.09
2019-04-10T09:52:16.733Z,53.91
2019-04-10T09:53:08.512Z,53.92
2019-04-10T09:53:59.455Z,53.95
2019-04-10T09:54:50.901Z,54.40
2019-04-10T09:55:41.241Z,54.74
2019-04-10T09:56:32.864Z,54.78
2019-04-10T09:57:22.888Z,54.74
2019-04-10T09:58:14.602Z,54.45
2019-04-10T09:59:05.434Z,54.59
2019-04-10T09:59:56.796Z,54.61
2019-04-10T10:00:48.202Z,54.08
2019-04-10T10:01:38.972Z,54.07
2019-04-10T10:02:29.584Z,54.37
2019-04-10T10:03:21.276Z,54.32
2019-04-10T10:04:13.231Z,54.20
2019-04-10T10:05:02.470Z,54.33
2019-04-10T10:05:53.282Z,54.29
2019-04-10T10:06:45.289Z,54.22
2019-04-10T10:07:34.863Z,54.05
2019-04-10T10:08:25.195Z,53.87
2019-04-10T10:09:17.672Z,53.97
2019-04-10T10:10:08.734Z,54.24
2019-04-10T10:10:59.740Z,53.97
2019-04-10T10:11:51.376Z,54.09
2019-04-10T10:12:42.904Z,54.25
2019-04-10T10:13:33.960Z,54.25
2019-04-10T10:14:23.696Z,54.39
2019-04-10T10:15:14.912Z,54.52
2019-04-10T10:16:06.403Z,54.66
2019-04-10T10:16:57.984Z,54.73
2019-04-10T10:17:48.818Z,54.71
2019-04-10T10:18:38.489Z,54.75
2019-04-10T10:19:30.010Z,54.77
2019-04-10T10:20:19.970Z,54.87
2019-04-10T10:21:12.440Z,54.49
2019-04-10T10:22:04.983Z,54.45
2019-04-10T10:22:53.787Z,54.62
2019-04-10T10:23:45.059Z,54.70
2019-04-10T10:24:35.282Z,54.80
2019-04-10T10:25:26.945Z,54.92
2019-04-10T10:26:18.007Z,54.95
2019-04-10T10:27:09.473Z,54.79
2019-04-10T10:28:00.749Z,54.63
2019-04-10T10:28:52.508Z,54.76
2019-04-10T10:29:41.965Z,54.85
2019-04-10T10:30:33.713Z,54.98
2019-04-10T10:31:26.439Z,55.07
2019-04-10T10:32:21.286Z,55.20
2019-04-10T10:33:11.342Z,55.37
2019-04-10T10:34:02.370Z,55.52
2019-04-10T10:34:53.270Z,55.45
2019-04-10T10:35:44.162Z,55.48
2019-04-10T10:36:41.455Z,55.60
2019-04-10T10:37:26.898Z,55.73
2019-04-10T10:38:17.593Z,55.83
2019-04-10T10:39:15.714Z,55.88
2019-04-10T10:40:08.364Z,56.02
2019-04-10T10:40:57.110Z,56.04
2019-04-10T10:41:48.974Z,56.08
2019-04-10T10:42:41.468Z,56.17
2019-04-10T10:43:32.191Z,56.25
2019-04-10T10:44:22.003Z,56.28
2019-04-10T10:45:14.475Z,56.33
2019-04-10T10:46:04.113Z,56.75
2019-04-10T10:46:55.817Z,56.99
2019-04-10T10:47:47.010Z,57.18
2019-04-10T10:48:38.434Z,57.68
2019-04-10T10:49:28.893Z,57.81
2019-04-10T10:50:19.568Z,57.98
2019-04-10T10:51:10.710Z,57.81
2019-04-10T10:52:01.451Z,57.71
2019-04-10T10:52:52.146Z,57.76
2019-04-10T10:53:42.029Z,58.31
2019-04-10T10:54:32.696Z,58.32
2019-04-10T10:55:23.305Z,58.71
2019-04-10T10:56:13.922Z,58.87
2019-04-10T10:57:04.038Z,58.74
2019-04-10T10:57:55.514Z,59.05
2019-04-10T10:58:46.360Z,59.11
2019-04-10T10:59:37.730Z,59.12